Havelock, North Carolina
Current Conditions -  °F | °C
As of 2:54 PM on Thursday 27 Nov 2014 (Local Time) from KNKT Reporting Station
Few Clouds Few Clouds  
Wind Chill: 55°   Ceiling: Unl
Heat Index: 55°   Visibility: 10mi
Dew Point: 38°   Wind: 20mph
Humidity: 53%   Direction: 300°WNW
Pressure: 29.99"   Gusts: 26mph
Location:  34.88°N, 76.9°W
Report Text: KNKT 271954Z 30017G23KT 10SM FEW038 13/03 A2999 RMK AO2 SLP153 T01280033 $
Loading
Personal Weather Stations






























Interactive Weather Map New forecast layout! Learn more

10-Day Weather Forecast

Advertisements
Track Severe Weather on mobile